createdAt,value
2018-04-30T00:00:25.647Z,59.40
2018-04-30T00:02:54.189Z,59.20
2018-04-30T00:05:22.020Z,59.20
2018-04-30T00:07:49.807Z,59.00
2018-04-30T00:10:17.656Z,58.40
2018-04-30T00:12:45.438Z,58.10
2018-04-30T00:15:13.216Z,57.00
2018-04-30T00:17:41.010Z,55.60
2018-04-30T00:20:09.568Z,53.80
2018-04-30T00:22:37.353Z,53.70
2018-04-30T00:25:05.898Z,53.30
2018-04-30T00:27:33.672Z,53.20
2018-04-30T00:30:01.465Z,52.80
2018-04-30T00:32:30.000Z,52.90
2018-04-30T00:34:57.810Z,53.00
2018-04-30T00:37:26.356Z,55.10
2018-04-30T00:39:54.132Z,54.50
2018-04-30T00:42:21.909Z,55.40
2018-04-30T00:44:49.684Z,56.00
2018-04-30T00:47:18.220Z,57.10
2018-04-30T00:49:45.995Z,57.10
2018-04-30T00:52:13.789Z,57.20
2018-04-30T00:54:53.228Z,57.30
2018-04-30T00:57:21.035Z,56.80
2018-04-30T00:59:48.826Z,57.30
2018-04-30T01:02:16.632Z,57.30
2018-04-30T01:04:45.213Z,56.90
2018-04-30T01:07:13.844Z,56.20
2018-04-30T01:09:41.678Z,56.10
2018-04-30T01:12:09.513Z,55.60
2018-04-30T01:14:37.338Z,55.20
2018-04-30T01:17:05.140Z,54.90
2018-04-30T01:19:32.932Z,54.30
2018-04-30T01:22:01.570Z,53.00
2018-04-30T01:24:29.372Z,53.00
2018-04-30T01:26:57.908Z,52.20
2018-04-30T01:29:25.712Z,52.20
2018-04-30T01:31:54.309Z,51.60
2018-04-30T01:34:22.883Z,51.30
2018-04-30T01:36:51.427Z,50.70
2018-04-30T01:39:19.193Z,50.70
2018-04-30T01:41:46.988Z,50.60
2018-04-30T01:44:15.640Z,50.50
2018-04-30T01:46:43.449Z,50.50
2018-04-30T01:49:11.983Z,50.30
2018-04-30T01:51:39.832Z,50.30
2018-04-30T01:54:07.617Z,50.00
2018-04-30T01:56:35.408Z,49.80
2018-04-30T01:59:03.223Z,49.30
2018-04-30T02:01:31.008Z,49.10
2018-04-30T02:03:58.820Z,48.90
2018-04-30T02:06:27.409Z,48.70
2018-04-30T02:08:55.989Z,48.80
2018-04-30T02:11:24.571Z,49.20
2018-04-30T02:13:53.131Z,49.30
2018-04-30T02:16:20.910Z,49.20
2018-04-30T02:18:49.457Z,49.20
2018-04-30T02:21:17.304Z,49.20
2018-04-30T02:23:45.090Z,49.30
2018-04-30T02:26:12.890Z,49.00
2018-04-30T02:28:41.433Z,49.00
2018-04-30T02:31:09.216Z,49.00
2018-04-30T02:33:37.116Z,48.80
2018-04-30T02:36:04.848Z,48.80
2018-04-30T02:38:32.628Z,48.50
2018-04-30T02:41:01.165Z,48.30
2018-04-30T02:43:28.942Z,48.30
2018-04-30T02:45:56.739Z,47.90
2018-04-30T02:48:25.324Z,47.70
2018-04-30T02:50:53.909Z,47.80
2018-04-30T02:53:22.456Z,47.70
2018-04-30T02:55:51.104Z,47.70
2018-04-30T02:58:18.934Z,47.90
2018-04-30T03:00:46.703Z,48.00
2018-04-30T03:03:15.250Z,48.60
2018-04-30T03:05:43.064Z,48.50
2018-04-30T03:08:11.622Z,49.20
2018-04-30T03:10:39.409Z,49.20
2018-04-30T03:13:07.957Z,49.70
2018-04-30T03:15:35.772Z,49.70
2018-04-30T03:18:03.636Z,50.00
2018-04-30T03:20:31.412Z,50.40
2018-04-30T03:22:59.192Z,50.70
2018-04-30T03:25:26.961Z,51.10
2018-04-30T03:27:54.739Z,51.80
2018-04-30T03:30:22.512Z,52.40
2018-04-30T03:32:50.291Z,53.30
2018-04-30T03:35:18.904Z,54.90
2018-04-30T03:37:46.693Z,54.90
2018-04-30T03:40:14.504Z,55.50
2018-04-30T03:42:42.303Z,55.80
2018-04-30T03:45:10.129Z,56.00
2018-04-30T03:47:37.932Z,56.30
2018-04-30T03:50:05.766Z,56.20
2018-04-30T03:52:33.540Z,56.20
2018-04-30T03:55:02.102Z,56.00
2018-04-30T03:57:30.668Z,55.60
2018-04-30T03:59:58.446Z,55.60
2018-04-30T04:02:38.073Z,55.00
2018-04-30T04:05:17.651Z,54.30
2018-04-30T04:07:46.211Z,53.70
2018-04-30T04:10:13.988Z,53.70
2018-04-30T04:12:41.806Z,53.70
2018-04-30T04:15:09.594Z,54.00
2018-04-30T04:17:37.376Z,55.50
2018-04-30T04:20:05.180Z,56.70
2018-04-30T04:22:32.972Z,57.10
2018-04-30T04:25:00.775Z,57.30
2018-04-30T04:27:28.580Z,57.30
2018-04-30T04:29:56.360Z,57.30
2018-04-30T04:32:24.142Z,57.00
2018-04-30T04:34:51.931Z,56.80
2018-04-30T04:37:19.724Z,55.80
2018-04-30T04:39:47.504Z,55.60
2018-04-30T04:42:15.293Z,55.60
2018-04-30T04:44:43.073Z,55.00
2018-04-30T04:47:10.839Z,53.80
2018-04-30T04:49:38.615Z,52.80
2018-04-30T04:52:06.411Z,52.20
2018-04-30T04:54:34.195Z,52.20
2018-04-30T04:57:01.969Z,52.40
2018-04-30T04:59:29.753Z,52.70
2018-04-30T05:01:57.531Z,53.20
2018-04-30T05:04:25.308Z,53.80
2018-04-30T05:06:53.854Z,54.50
2018-04-30T05:09:21.644Z,54.50
2018-04-30T05:11:49.412Z,54.70
2018-04-30T05:14:17.207Z,54.80
2018-04-30T05:16:45.038Z,55.00
2018-04-30T05:19:12.836Z,55.20
2018-04-30T05:21:41.384Z,55.60
2018-04-30T05:24:09.204Z,55.50
2018-04-30T05:26:37.016Z,55.60
2018-04-30T05:29:04.793Z,55.60
2018-04-30T05:31:33.356Z,55.50
2018-04-30T05:34:01.164Z,55.40
2018-04-30T05:36:28.986Z,55.40
2018-04-30T05:38:56.792Z,55.40
2018-04-30T05:41:24.567Z,55.40
2018-04-30T05:43:52.388Z,55.50
2018-04-30T05:46:20.163Z,55.40
2018-04-30T05:48:48.709Z,55.20
2018-04-30T05:51:16.477Z,55.10
2018-04-30T05:53:44.292Z,55.00
2018-04-30T05:56:12.229Z,55.00
2018-04-30T05:58:40.077Z,55.00
2018-04-30T06:01:07.924Z,54.90
2018-04-30T06:03:35.718Z,54.80
2018-04-30T06:06:03.593Z,54.70
2018-04-30T06:08:31.389Z,54.80
2018-04-30T06:10:59.192Z,54.70
2018-04-30T06:13:26.985Z,54.50
2018-04-30T06:15:54.787Z,54.10
2018-04-30T06:18:22.573Z,53.90
2018-04-30T06:20:50.369Z,53.70
2018-04-30T06:23:18.156Z,53.60
2018-04-30T06:25:46.698Z,53.20
2018-04-30T06:28:14.479Z,53.10
2018-04-30T06:30:42.291Z,52.90
2018-04-30T06:33:10.075Z,52.80
2018-04-30T06:35:37.854Z,52.70
2018-04-30T06:38:05.623Z,52.60
2018-04-30T06:40:33.493Z,52.50
2018-04-30T06:43:01.283Z,52.50
2018-04-30T06:45:29.090Z,52.30
2018-04-30T06:47:56.895Z,52.30
2018-04-30T06:50:24.673Z,52.50
2018-04-30T06:52:52.456Z,52.70
2018-04-30T06:55:21.024Z,52.50
2018-04-30T06:57:48.803Z,52.50
2018-04-30T07:00:17.475Z,52.80
2018-04-30T07:02:45.232Z,52.20
2018-04-30T07:05:13.101Z,52.20
2018-04-30T07:07:40.888Z,52.20
2018-04-30T07:10:09.519Z,52.30
2018-04-30T07:12:37.368Z,52.30
2018-04-30T07:15:05.232Z,52.10
2018-04-30T07:17:33.029Z,51.70
2018-04-30T07:20:00.894Z,51.60
2018-04-30T07:22:28.692Z,51.50
2018-04-30T07:24:57.255Z,51.30
2018-04-30T07:27:25.069Z,51.30
2018-04-30T07:29:53.616Z,50.70
2018-04-30T07:32:21.393Z,50.60
2018-04-30T07:34:50.005Z,49.00
2018-04-30T07:37:17.783Z,49.00
2018-04-30T07:39:45.549Z,48.70
2018-04-30T07:42:13.335Z,48.40
2018-04-30T07:44:41.104Z,48.10
2018-04-30T07:47:08.891Z,47.90
2018-04-30T07:49:37.474Z,48.20
2018-04-30T07:52:06.036Z,47.90
2018-04-30T07:54:33.933Z,47.80
2018-04-30T07:57:02.693Z,47.30
2018-04-30T07:59:30.472Z,47.40
2018-04-30T08:01:59.019Z,46.80
2018-04-30T08:04:26.800Z,46.80
2018-04-30T08:12:00.551Z,49.30
2018-04-30T08:14:28.531Z,49.60
2018-04-30T08:16:57.139Z,51.00
2018-04-30T08:19:24.948Z,51.00
2018-04-30T08:21:52.741Z,51.00
2018-04-30T08:24:21.332Z,51.20
2018-04-30T08:26:49.937Z,51.40
2018-04-30T08:29:17.716Z,51.40
2018-04-30T08:31:45.561Z,51.40
2018-04-30T08:34:13.363Z,51.50
2018-04-30T08:36:41.261Z,51.50
2018-04-30T08:39:09.229Z,51.50
2018-04-30T08:41:37.782Z,51.30
2018-04-30T08:44:05.600Z,51.30
2018-04-30T08:46:34.220Z,51.00
2018-04-30T08:49:02.020Z,51.00
2018-04-30T08:51:29.861Z,50.60
2018-04-30T08:53:57.657Z,51.20
2018-04-30T08:56:25.425Z,50.70
2018-04-30T08:58:53.279Z,50.40
2018-04-30T09:01:21.053Z,50.50
2018-04-30T09:03:49.616Z,49.90
2018-04-30T09:06:17.407Z,49.90
2018-04-30T09:08:45.956Z,49.10
2018-04-30T09:11:13.749Z,49.10
2018-04-30T09:13:41.528Z,49.00
2018-04-30T09:16:09.348Z,49.00
2018-04-30T09:18:37.127Z,48.10
2018-04-30T09:21:04.918Z,47.90
2018-04-30T09:23:33.461Z,48.60
2018-04-30T09:26:01.220Z,48.60
2018-04-30T09:28:28.993Z,48.90
2018-04-30T09:30:57.551Z,49.00
2018-04-30T09:33:25.334Z,49.10
2018-04-30T09:35:53.151Z,49.00
2018-04-30T09:38:21.728Z,48.70
2018-04-30T09:40:50.296Z,48.90
2018-04-30T09:43:18.842Z,48.40
2018-04-30T09:45:46.623Z,48.30
2018-04-30T09:48:14.405Z,48.30
2018-04-30T09:50:42.207Z,48.10
2018-04-30T09:53:10.013Z,48.10
2018-04-30T09:55:37.817Z,48.10
2018-04-30T09:58:06.398Z,48.10
2018-04-30T10:00:34.203Z,48.10
2018-04-30T10:03:01.991Z,48.00
2018-04-30T10:05:29.776Z,47.90
2018-04-30T10:07:57.571Z,47.30
2018-04-30T10:10:25.363Z,47.30
2018-04-30T10:12:53.174Z,46.30
2018-04-30T10:15:21.795Z,45.10
2018-04-30T10:17:49.703Z,45.10
2018-04-30T10:20:17.491Z,44.70
2018-04-30T10:22:46.123Z,43.70
2018-04-30T10:25:13.892Z,43.70
2018-04-30T10:27:41.675Z,43.70
2018-04-30T10:30:09.472Z,44.40
2018-04-30T10:32:38.022Z,44.50
2018-04-30T10:35:05.864Z,44.40
2018-04-30T10:37:33.636Z,43.30
2018-04-30T10:40:01.411Z,43.10
2018-04-30T10:42:29.227Z,42.80
2018-04-30T10:44:57.832Z,42.30
2018-04-30T10:47:25.674Z,42.30
2018-04-30T10:49:54.208Z,42.00
2018-04-30T10:52:22.008Z,42.00
2018-04-30T10:54:50.552Z,42.90
2018-04-30T10:57:18.412Z,42.90
2018-04-30T10:59:46.244Z,43.40
2018-04-30T11:02:14.033Z,44.10
2018-04-30T11:04:41.816Z,45.90
2018-04-30T11:07:09.591Z,45.60
2018-04-30T11:09:37.381Z,45.50
2018-04-30T11:12:05.920Z,44.90
2018-04-30T11:14:33.717Z,44.80
2018-04-30T11:17:02.459Z,46.00
2018-04-30T11:19:30.238Z,45.30
2018-04-30T11:21:58.011Z,45.20
2018-04-30T11:24:25.800Z,45.00
2018-04-30T11:26:54.348Z,43.90
2018-04-30T11:29:22.145Z,43.80
2018-04-30T11:31:50.720Z,43.10
2018-04-30T11:34:18.504Z,43.10
2018-04-30T11:36:47.071Z,41.00
2018-04-30T11:39:15.695Z,40.60
2018-04-30T11:41:43.507Z,40.50
2018-04-30T11:44:11.304Z,40.60
2018-04-30T11:46:39.123Z,40.10
2018-04-30T11:49:06.975Z,39.70
2018-04-30T11:51:34.823Z,39.90
2018-04-30T11:54:02.636Z,39.70
2018-04-30T11:56:30.430Z,39.60
2018-04-30T11:58:58.227Z,40.20
2018-04-30T12:01:27.223Z,40.20
2018-04-30T12:03:55.028Z,40.20
2018-04-30T12:06:22.830Z,39.50
2018-04-30T12:08:50.789Z,40.10
2018-04-30T12:11:18.631Z,39.90
2018-04-30T12:13:46.452Z,40.10
2018-04-30T12:16:14.358Z,39.90
2018-04-30T12:18:42.149Z,39.00
2018-04-30T12:23:44.044Z,39.30
2018-04-30T12:26:11.896Z,39.00
2018-04-30T12:28:54.657Z,39.30
2018-04-30T12:31:22.507Z,39.70
2018-04-30T12:33:50.381Z,39.80
2018-04-30T12:36:18.191Z,39.90
2018-04-30T12:38:46.760Z,39.50
2018-04-30T12:41:14.535Z,39.40
2018-04-30T12:43:43.155Z,40.20
2018-04-30T12:46:10.960Z,40.20
2018-04-30T12:48:38.752Z,40.10
2018-04-30T12:51:07.332Z,41.10
2018-04-30T12:53:35.900Z,41.20
2018-04-30T12:56:03.841Z,41.20
2018-04-30T12:58:31.596Z,41.10
2018-04-30T13:00:59.391Z,40.50
2018-04-30T13:03:27.210Z,40.90
2018-04-30T13:05:55.085Z,41.20
2018-04-30T13:08:22.902Z,41.30
2018-04-30T13:10:51.475Z,42.40
2018-04-30T13:13:20.051Z,42.30
2018-04-30T13:15:47.844Z,42.30
2018-04-30T13:18:16.399Z,42.40
2018-04-30T13:20:44.214Z,42.40
2018-04-30T13:23:12.000Z,42.30
2018-04-30T13:25:39.816Z,42.50
2018-04-30T13:28:07.611Z,43.00
2018-04-30T13:30:35.424Z,43.40
2018-04-30T13:33:03.286Z,43.50
2018-04-30T13:35:31.148Z,43.60
2018-04-30T13:37:58.920Z,43.90
2018-04-30T13:40:27.840Z,43.90
2018-04-30T13:42:56.397Z,43.90
2018-04-30T13:45:24.234Z,43.90
2018-04-30T13:47:52.031Z,43.80
2018-04-30T13:50:19.811Z,43.90
2018-04-30T13:52:49.420Z,44.30
2018-04-30T13:55:17.256Z,44.30
2018-04-30T13:57:45.053Z,43.80
2018-04-30T14:00:13.639Z,42.80
2018-04-30T14:02:42.895Z,42.50
2018-04-30T14:05:10.688Z,42.50
2018-04-30T14:07:38.489Z,42.90
2018-04-30T14:10:06.302Z,42.90
2018-04-30T14:12:34.108Z,43.20
2018-04-30T14:15:02.652Z,43.80
2018-04-30T14:17:30.512Z,43.80
2018-04-30T14:19:58.309Z,44.00
2018-04-30T14:22:26.204Z,44.10
2018-04-30T14:24:53.967Z,44.20
2018-04-30T14:27:21.763Z,44.60
2018-04-30T14:29:49.552Z,44.50
2018-04-30T14:32:17.348Z,44.80
2018-04-30T14:34:45.126Z,44.80
2018-04-30T14:37:12.919Z,45.20
2018-04-30T14:39:40.767Z,45.40
2018-04-30T14:42:08.607Z,45.50
2018-04-30T14:44:37.219Z,45.90
2018-04-30T14:47:05.025Z,45.90
2018-04-30T14:49:32.835Z,46.10
2018-04-30T14:52:00.635Z,46.10
2018-04-30T14:54:28.408Z,46.30
2018-04-30T14:56:56.183Z,46.40
2018-04-30T14:59:24.068Z,46.30
2018-04-30T15:01:52.619Z,46.40
2018-04-30T15:04:20.422Z,46.40
2018-04-30T15:06:48.336Z,46.60
2018-04-30T15:09:16.111Z,46.90
2018-04-30T15:11:43.916Z,47.10
2018-04-30T15:14:12.468Z,47.00
2018-04-30T15:16:40.256Z,47.00
2018-04-30T15:19:08.805Z,47.30
2018-04-30T15:21:36.564Z,47.30
2018-04-30T15:24:04.380Z,47.50
2018-04-30T15:26:33.633Z,47.20
2018-04-30T15:29:01.446Z,47.20
2018-04-30T15:31:29.355Z,47.10
2018-04-30T15:33:57.160Z,46.80
2018-04-30T15:36:25.037Z,47.10
2018-04-30T15:38:52.833Z,46.90
2018-04-30T15:41:20.624Z,46.70
2018-04-30T15:43:48.524Z,47.10
2018-04-30T15:46:17.078Z,47.70
2018-04-30T15:48:44.939Z,47.70
2018-04-30T15:51:12.867Z,47.80
2018-04-30T15:53:40.640Z,47.70
2018-04-30T15:56:08.467Z,47.40
2018-04-30T15:58:36.254Z,47.50
2018-04-30T16:01:04.119Z,47.80
2018-04-30T16:03:32.770Z,48.20
2018-04-30T16:06:01.240Z,48.30
2018-04-30T16:08:29.028Z,48.40
2018-04-30T16:10:57.638Z,48.40
2018-04-30T16:13:25.519Z,48.40
2018-04-30T16:15:53.297Z,48.60
2018-04-30T16:18:21.075Z,49.00
2018-04-30T16:20:48.831Z,48.90
2018-04-30T16:23:16.601Z,48.80
2018-04-30T16:25:44.404Z,49.20
2018-04-30T16:28:12.949Z,49.60
2018-04-30T16:30:40.757Z,49.60
2018-04-30T16:33:09.341Z,50.00
2018-04-30T16:35:37.968Z,50.30
2018-04-30T16:38:06.528Z,50.70
2018-04-30T16:40:34.383Z,50.50
2018-04-30T16:43:02.947Z,50.90
2018-04-30T16:45:31.503Z,50.90
2018-04-30T16:47:59.291Z,50.90
2018-04-30T16:50:27.066Z,51.10
2018-04-30T16:52:55.613Z,51.40
2018-04-30T16:55:23.384Z,51.30
2018-04-30T16:57:51.172Z,51.40
2018-04-30T17:00:19.721Z,51.60
2018-04-30T17:02:47.620Z,51.60
2018-04-30T17:05:16.156Z,51.60
2018-04-30T17:07:43.935Z,51.50
2018-04-30T17:10:11.736Z,51.50
2018-04-30T17:12:40.291Z,51.50
2018-04-30T17:15:08.096Z,51.50
2018-04-30T17:17:36.631Z,51.30
2018-04-30T17:20:04.485Z,51.30
2018-04-30T17:22:32.301Z,51.20
2018-04-30T17:25:00.907Z,51.60
2018-04-30T17:27:28.692Z,51.60
2018-04-30T17:29:56.475Z,51.60
2018-04-30T17:32:24.272Z,51.90
2018-04-30T17:34:52.880Z,52.20
2018-04-30T17:37:20.843Z,52.20
2018-04-30T17:39:48.627Z,52.20
2018-04-30T17:42:16.452Z,52.40
2018-04-30T17:44:45.043Z,52.80
2018-04-30T17:47:13.600Z,53.00
2018-04-30T17:49:42.056Z,53.10
2018-04-30T17:52:09.928Z,53.40
2018-04-30T17:54:37.739Z,53.60
2018-04-30T17:57:06.416Z,53.80
2018-04-30T17:59:34.988Z,54.00
2018-04-30T18:02:03.587Z,54.00
2018-04-30T18:04:32.123Z,54.10
2018-04-30T18:07:00.788Z,54.10
2018-04-30T18:09:29.284Z,54.10
2018-04-30T18:11:57.116Z,54.10
2018-04-30T18:14:24.911Z,54.10
2018-04-30T18:16:52.690Z,54.20
2018-04-30T18:19:20.482Z,54.30
2018-04-30T18:21:49.111Z,54.00
2018-04-30T18:24:16.923Z,54.30
2018-04-30T18:26:45.860Z,54.30
2018-04-30T18:29:14.379Z,54.20
2018-04-30T18:31:42.172Z,54.20
2018-04-30T18:34:11.025Z,54.20
2018-04-30T18:36:38.872Z,54.10
2018-04-30T18:39:06.708Z,54.10
2018-04-30T18:41:34.494Z,54.00
2018-04-30T18:44:02.285Z,53.70
2018-04-30T18:46:30.100Z,53.70
2018-04-30T18:48:58.684Z,53.70
2018-04-30T18:51:27.383Z,53.70
2018-04-30T18:53:55.204Z,53.60
2018-04-30T18:56:23.012Z,53.60
2018-04-30T18:58:50.803Z,53.60
2018-04-30T19:01:18.577Z,53.40
2018-04-30T19:03:46.360Z,53.40
2018-04-30T19:06:14.148Z,53.40
2018-04-30T19:08:41.955Z,53.40
2018-04-30T19:11:09.727Z,53.40
2018-04-30T19:13:37.505Z,53.40
2018-04-30T19:16:05.308Z,53.40
2018-04-30T19:18:33.841Z,53.50
2018-04-30T19:21:01.632Z,53.50
2018-04-30T19:23:29.460Z,53.60
2018-04-30T19:25:57.276Z,53.60
2018-04-30T19:28:25.812Z,53.90
2018-04-30T19:30:53.592Z,53.80
2018-04-30T19:33:21.425Z,53.90
2018-04-30T19:35:49.448Z,54.00
2018-04-30T19:38:17.223Z,54.10
2018-04-30T19:40:45.779Z,54.50
2018-04-30T19:43:13.580Z,54.30
2018-04-30T19:45:41.409Z,54.50
2018-04-30T19:48:09.268Z,54.50
2018-04-30T19:50:37.098Z,54.70
2018-04-30T19:53:04.921Z,54.90
2018-04-30T19:55:32.704Z,55.10
2018-04-30T19:58:01.249Z,55.20
2018-04-30T20:00:29.044Z,55.10
2018-04-30T20:02:57.709Z,55.50
2018-04-30T20:05:25.500Z,55.40
2018-04-30T20:07:54.050Z,55.60
2018-04-30T20:10:22.652Z,55.50
2018-04-30T20:12:51.416Z,55.50
2018-04-30T20:15:19.248Z,55.50
2018-04-30T20:17:47.029Z,55.50
2018-04-30T20:20:14.880Z,56.20
2018-04-30T20:22:42.688Z,55.50
2018-04-30T20:25:10.576Z,55.30
2018-04-30T20:27:39.155Z,55.70
2018-04-30T20:30:07.008Z,55.70
2018-04-30T20:32:34.822Z,56.00
2018-04-30T20:35:02.630Z,56.30
2018-04-30T20:37:31.015Z,56.60
2018-04-30T20:39:58.862Z,56.90
2018-04-30T20:42:26.744Z,57.40
2018-04-30T20:44:54.534Z,57.50
2018-04-30T20:47:23.087Z,58.00
2018-04-30T20:49:50.935Z,57.90
2018-04-30T20:52:18.720Z,58.20
2018-04-30T20:54:46.510Z,58.30
2018-04-30T20:57:15.081Z,58.30
2018-04-30T20:59:42.892Z,58.20
2018-04-30T21:02:10.673Z,57.90
2018-04-30T21:04:38.488Z,57.70
2018-04-30T21:07:07.130Z,57.60
2018-04-30T21:09:34.953Z,57.60
2018-04-30T21:12:04.238Z,57.50
2018-04-30T21:14:32.776Z,57.60
2018-04-30T21:17:00.766Z,57.60
2018-04-30T21:19:29.278Z,57.90
2018-04-30T21:21:57.918Z,57.90
2018-04-30T21:24:25.796Z,57.90
2018-04-30T21:26:53.552Z,58.00
2018-04-30T21:29:21.332Z,58.00
2018-04-30T21:31:49.109Z,58.00
2018-04-30T21:34:16.974Z,58.20
2018-04-30T21:36:44.776Z,58.00
2018-04-30T21:39:12.607Z,58.40
2018-04-30T21:41:40.438Z,58.00
2018-04-30T21:44:08.247Z,58.10
2018-04-30T21:46:36.787Z,58.60
2018-04-30T21:49:04.640Z,58.60
2018-04-30T21:51:32.488Z,58.80
2018-04-30T21:54:00.378Z,59.00
2018-04-30T21:56:28.943Z,59.20
2018-04-30T21:58:57.011Z,59.20
2018-04-30T22:01:31.484Z,59.20
2018-04-30T22:03:59.351Z,59.20
2018-04-30T22:06:27.203Z,59.10
2018-04-30T22:08:55.224Z,59.10
2018-04-30T22:11:23.533Z,59.20
2018-04-30T22:13:54.466Z,59.20
2018-04-30T22:16:22.573Z,59.40
2018-04-30T22:18:50.466Z,59.40
2018-04-30T22:21:18.354Z,59.50
2018-04-30T22:23:46.231Z,59.60
2018-04-30T22:26:14.020Z,59.70
2018-04-30T22:28:42.617Z,59.90
2018-04-30T22:31:10.434Z,59.90
2018-04-30T22:33:38.217Z,59.80
2018-04-30T22:36:06.004Z,60.10
2018-04-30T22:38:33.812Z,60.60
2018-04-30T22:41:01.609Z,61.40
2018-04-30T22:43:37.815Z,62.00
2018-04-30T22:46:05.862Z,61.20
2018-04-30T22:48:33.651Z,60.90
2018-04-30T22:51:02.212Z,61.30
2018-04-30T22:53:30.008Z,61.30
2018-04-30T22:55:58.585Z,60.90
2018-04-30T22:58:27.165Z,60.20
2018-04-30T23:00:55.780Z,59.90
2018-04-30T23:03:23.566Z,59.90
2018-04-30T23:05:51.360Z,59.90
2018-04-30T23:08:19.156Z,59.60
2018-04-30T23:11:01.707Z,59.20
2018-04-30T23:13:29.528Z,59.20
2018-04-30T23:15:58.080Z,59.00
2018-04-30T23:18:25.931Z,59.00
2018-04-30T23:20:53.712Z,58.70
2018-04-30T23:23:21.507Z,58.40
2018-04-30T23:25:50.060Z,58.30
2018-04-30T23:28:17.868Z,58.30
2018-04-30T23:30:45.708Z,57.90
2018-04-30T23:33:13.496Z,58.00
2018-04-30T23:35:41.302Z,58.20
2018-04-30T23:38:09.107Z,58.10
2018-04-30T23:40:37.672Z,58.00
2018-04-30T23:43:05.469Z,58.00
2018-04-30T23:45:33.328Z,57.80
2018-04-30T23:48:01.131Z,58.20
2018-04-30T23:50:28.930Z,58.00
2018-04-30T23:52:56.727Z,58.20
2018-04-30T23:55:25.280Z,58.70
2018-04-30T23:57:53.092Z,58.80
